sensor_id;sensor_type;location;lat;lon;timestamp;P1;P2;P0
83484;PMS5003;73420;32.678;-85.380;2024-01-07T00:02:16;4;4;
83484;PMS5003;73420;32.678;-85.380;2024-01-07T00:04:42;6;5;
83484;PMS5003;73420;32.678;-85.380;2024-01-07T00:07:07;5;5;
83484;PMS5003;73420;32.678;-85.380;2024-01-07T00:09:38;5;5;
83484;PMS5003;73420;32.678;-85.380;2024-01-07T00:11:59;5;5;
83484;PMS5003;73420;32.678;-85.380;2024-01-07T00:14:24;4;4;
83484;PMS5003;73420;32.678;-85.380;2024-01-07T00:16:50;4;4;
83484;PMS5003;73420;32.678;-85.380;2024-01-07T00:19:15;4;4;
83484;PMS5003;73420;32.678;-85.380;2024-01-07T00:21:46;5;5;
83484;PMS5003;73420;32.678;-85.380;2024-01-07T00:24:06;4;4;
83484;PMS5003;73420;32.678;-85.380;2024-01-07T00:26:32;5;5;
83484;PMS5003;73420;32.678;-85.380;2024-01-07T00:28:57;10;6;
83484;PMS5003;73420;32.678;-85.380;2024-01-07T00:31:23;5;5;
83484;PMS5003;73420;32.678;-85.380;2024-01-07T00:33:49;5;5;
83484;PMS5003;73420;32.678;-85.380;2024-01-07T00:36:14;6;5;
83484;PMS5003;73420;32.678;-85.380;2024-01-07T00:38:40;5;5;
83484;PMS5003;73420;32.678;-85.380;2024-01-07T00:41:05;5;5;
83484;PMS5003;73420;32.678;-85.380;2024-01-07T00:43:31;5;5;
83484;PMS5003;73420;32.678;-85.380;2024-01-07T00:45:59;4;4;
83484;PMS5003;73420;32.678;-85.380;2024-01-07T00:48:22;8;8;
83484;PMS5003;73420;32.678;-85.380;2024-01-07T00:50:47;5;5;
83484;PMS5003;73420;32.678;-85.380;2024-01-07T00:53:13;6;5;
83484;PMS5003;73420;32.678;-85.380;2024-01-07T00:55:38;6;6;
83484;PMS5003;73420;32.678;-85.380;2024-01-07T00:58:04;9;7;
83484;PMS5003;73420;32.678;-85.380;2024-01-07T01:00:29;6;6;
83484;PMS5003;73420;32.678;-85.380;2024-01-07T01:02:55;6;6;
83484;PMS5003;73420;32.678;-85.380;2024-01-07T01:05:21;6;6;
83484;PMS5003;73420;32.678;-85.380;2024-01-07T01:07:46;8;8;
83484;PMS5003;73420;32.678;-85.380;2024-01-07T01:10:13;7;7;
83484;PMS5003;73420;32.678;-85.380;2024-01-07T01:12:37;8;8;
83484;PMS5003;73420;32.678;-85.380;2024-01-07T01:15:03;9;8;
83484;PMS5003;73420;32.678;-85.380;2024-01-07T01:17:30;6;6;
83484;PMS5003;73420;32.678;-85.380;2024-01-07T01:19:54;7;7;
83484;PMS5003;73420;32.678;-85.380;2024-01-07T01:22:20;5;5;
83484;PMS5003;73420;32.678;-85.380;2024-01-07T01:24:45;5;5;
83484;PMS5003;73420;32.678;-85.380;2024-01-07T01:27:11;5;5;
83484;PMS5003;73420;32.678;-85.380;2024-01-07T01:29:36;7;6;
83484;PMS5003;73420;32.678;-85.380;2024-01-07T01:32:03;6;6;
83484;PMS5003;73420;32.678;-85.380;2024-01-07T01:34:28;9;9;
83484;PMS5003;73420;32.678;-85.380;2024-01-07T01:36:53;7;7;
83484;PMS5003;73420;32.678;-85.380;2024-01-07T01:39:18;9;8;
83484;PMS5003;73420;32.678;-85.380;2024-01-07T01:41:44;9;9;
83484;PMS5003;73420;32.678;-85.380;2024-01-07T01:44:09;6;6;
83484;PMS5003;73420;32.678;-85.380;2024-01-07T01:46:35;6;6;
83484;PMS5003;73420;32.678;-85.380;2024-01-07T01:49:02;6;6;
83484;PMS5003;73420;32.678;-85.380;2024-01-07T01:51:26;5;5;
83484;PMS5003;73420;32.678;-85.380;2024-01-07T01:53:52;4;4;
83484;PMS5003;73420;32.678;-85.380;2024-01-07T01:56:17;3;3;
83484;PMS5003;73420;32.678;-85.380;2024-01-07T01:58:43;12;11;
83484;PMS5003;73420;32.678;-85.380;2024-01-07T02:01:08;5;5;
83484;PMS5003;73420;32.678;-85.380;2024-01-07T02:03:33;7;7;
83484;PMS5003;73420;32.678;-85.380;2024-01-07T02:05:59;5;5;
83484;PMS5003;73420;32.678;-85.380;2024-01-07T02:08:24;4;4;
83484;PMS5003;73420;32.678;-85.380;2024-01-07T02:10:53;5;5;
83484;PMS5003;73420;32.678;-85.380;2024-01-07T02:13:16;3;3;
83484;PMS5003;73420;32.678;-85.380;2024-01-07T02:15:42;4;4;
83484;PMS5003;73420;32.678;-85.380;2024-01-07T02:18:07;5;5;
83484;PMS5003;73420;32.678;-85.380;2024-01-07T02:20:32;4;4;
83484;PMS5003;73420;32.678;-85.380;2024-01-07T02:23:00;4;4;
83484;PMS5003;73420;32.678;-85.380;2024-01-07T02:25:23;5;5;
83484;PMS5003;73420;32.678;-85.380;2024-01-07T02:27:49;7;5;
83484;PMS5003;73420;32.678;-85.380;2024-01-07T02:30:14;3;3;
83484;PMS5003;73420;32.678;-85.380;2024-01-07T02:32:40;4;4;
83484;PMS5003;73420;32.678;-85.380;2024-01-07T02:35:10;3;3;
83484;PMS5003;73420;32.678;-85.380;2024-01-07T02:37:31;4;4;
83484;PMS5003;73420;32.678;-85.380;2024-01-07T02:39:56;4;4;
83484;PMS5003;73420;32.678;-85.380;2024-01-07T02:42:22;4;4;
83484;PMS5003;73420;32.678;-85.380;2024-01-07T02:44:47;4;4;
83484;PMS5003;73420;32.678;-85.380;2024-01-07T02:47:13;4;4;
83484;PMS5003;73420;32.678;-85.380;2024-01-07T02:49:38;4;4;
83484;PMS5003;73420;32.678;-85.380;2024-01-07T02:52:04;4;4;
83484;PMS5003;73420;32.678;-85.380;2024-01-07T02:54:29;6;5;
83484;PMS5003;73420;32.678;-85.380;2024-01-07T02:56:55;4;4;
83484;PMS5003;73420;32.678;-85.380;2024-01-07T02:59:21;4;4;
83484;PMS5003;73420;32.678;-85.380;2024-01-07T03:01:46;3;3;
83484;PMS5003;73420;32.678;-85.380;2024-01-07T03:04:13;5;5;
83484;PMS5003;73420;32.678;-85.380;2024-01-07T03:06:37;3;3;
83484;PMS5003;73420;32.678;-85.380;2024-01-07T03:09:03;5;5;
83484;PMS5003;73420;32.678;-85.380;2024-01-07T03:11:28;5;5;
83484;PMS5003;73420;32.678;-85.380;2024-01-07T03:13:53;3;3;
83484;PMS5003;73420;32.678;-85.380;2024-01-07T03:16:19;4;4;
83484;PMS5003;73420;32.678;-85.380;2024-01-07T03:18:44;6;6;
83484;PMS5003;73420;32.678;-85.380;2024-01-07T03:23:36;5;5;
83484;PMS5003;73420;32.678;-85.380;2024-01-07T03:26:00;5;5;
83484;PMS5003;73420;32.678;-85.380;2024-01-07T03:28:26;4;4;
83484;PMS5003;73420;32.678;-85.380;2024-01-07T03:30:51;4;4;
83484;PMS5003;73420;32.678;-85.380;2024-01-07T03:33:16;4;4;
83484;PMS5003;73420;32.678;-85.380;2024-01-07T03:35:42;5;4;
83484;PMS5003;73420;32.678;-85.380;2024-01-07T03:38:07;4;4;
83484;PMS5003;73420;32.678;-85.380;2024-01-07T03:40:33;8;7;
83484;PMS5003;73420;32.678;-85.380;2024-01-07T03:42:58;5;4;
83484;PMS5003;73420;32.678;-85.380;2024-01-07T03:45:24;4;3;
83484;PMS5003;73420;32.678;-85.380;2024-01-07T03:47:50;4;3;
83484;PMS5003;73420;32.678;-85.380;2024-01-07T03:50:15;6;6;
83484;PMS5003;73420;32.678;-85.380;2024-01-07T03:52:40;3;3;
83484;PMS5003;73420;32.678;-85.380;2024-01-07T03:55:06;5;5;
83484;PMS5003;73420;32.678;-85.380;2024-01-07T03:57:31;6;5;
83484;PMS5003;73420;32.678;-85.380;2024-01-07T03:59:58;4;4;
83484;PMS5003;73420;32.678;-85.380;2024-01-07T04:02:22;4;4;
83484;PMS5003;73420;32.678;-85.380;2024-01-07T04:04:47;5;4;
83484;PMS5003;73420;32.678;-85.380;2024-01-07T04:07:13;6;5;
83484;PMS5003;73420;32.678;-85.380;2024-01-07T04:09:38;4;4;
83484;PMS5003;73420;32.678;-85.380;2024-01-07T04:12:05;5;5;
83484;PMS5003;73420;32.678;-85.380;2024-01-07T04:14:29;5;5;
83484;PMS5003;73420;32.678;-85.380;2024-01-07T04:16:55;3;3;
83484;PMS5003;73420;32.678;-85.380;2024-01-07T04:19:20;5;4;
83484;PMS5003;73420;32.678;-85.380;2024-01-07T04:21:46;4;4;
83484;PMS5003;73420;32.678;-85.380;2024-01-07T04:24:14;5;5;
83484;PMS5003;73420;32.678;-85.380;2024-01-07T04:26:37;4;4;
83484;PMS5003;73420;32.678;-85.380;2024-01-07T04:29:03;4;4;
83484;PMS5003;73420;32.678;-85.380;2024-01-07T04:31:28;4;4;
83484;PMS5003;73420;32.678;-85.380;2024-01-07T04:33:54;5;5;
83484;PMS5003;73420;32.678;-85.380;2024-01-07T04:36:19;4;4;
83484;PMS5003;73420;32.678;-85.380;2024-01-07T04:38:45;5;4;
83484;PMS5003;73420;32.678;-85.380;2024-01-07T04:41:10;4;4;
83484;PMS5003;73420;32.678;-85.380;2024-01-07T04:43:36;3;3;
83484;PMS5003;73420;32.678;-85.380;2024-01-07T04:46:01;3;3;
83484;PMS5003;73420;32.678;-85.380;2024-01-07T04:48:27;3;3;
83484;PMS5003;73420;32.678;-85.380;2024-01-07T04:50:52;3;3;
83484;PMS5003;73420;32.678;-85.380;2024-01-07T04:53:18;3;3;
83484;PMS5003;73420;32.678;-85.380;2024-01-07T04:55:43;4;4;
83484;PMS5003;73420;32.678;-85.380;2024-01-07T04:58:09;3;3;
83484;PMS5003;73420;32.678;-85.380;2024-01-07T05:00:36;2;2;
83484;PMS5003;73420;32.678;-85.380;2024-01-07T05:03:00;4;4;
83484;PMS5003;73420;32.678;-85.380;2024-01-07T05:05:25;3;3;
83484;PMS5003;73420;32.678;-85.380;2024-01-07T05:07:51;4;4;
83484;PMS5003;73420;32.678;-85.380;2024-01-07T05:10:17;3;2;
83484;PMS5003;73420;32.678;-85.380;2024-01-07T05:12:47;4;3;
83484;PMS5003;73420;32.678;-85.380;2024-01-07T05:15:08;4;4;
83484;PMS5003;73420;32.678;-85.380;2024-01-07T05:17:33;4;4;
83484;PMS5003;73420;32.678;-85.380;2024-01-07T05:19:58;4;3;
83484;PMS5003;73420;32.678;-85.380;2024-01-07T05:22:24;3;3;
83484;PMS5003;73420;32.678;-85.380;2024-01-07T05:24:53;3;2;
83484;PMS5003;73420;32.678;-85.380;2024-01-07T05:27:15;2;2;
83484;PMS5003;73420;32.678;-85.380;2024-01-07T05:29:44;3;3;
83484;PMS5003;73420;32.678;-85.380;2024-01-07T05:32:06;3;3;
83484;PMS5003;73420;32.678;-85.380;2024-01-07T05:34:31;2;2;
83484;PMS5003;73420;32.678;-85.380;2024-01-07T05:36:57;2;2;
83484;PMS5003;73420;32.678;-85.380;2024-01-07T05:39:22;4;3;
83484;PMS5003;73420;32.678;-85.380;2024-01-07T05:41:48;2;2;
83484;PMS5003;73420;32.678;-85.380;2024-01-07T05:44:13;2;2;
83484;PMS5003;73420;32.678;-85.380;2024-01-07T05:46:39;2;2;
83484;PMS5003;73420;32.678;-85.380;2024-01-07T05:49:07;3;3;
83484;PMS5003;73420;32.678;-85.380;2024-01-07T05:51:30;2;2;
83484;PMS5003;73420;32.678;-85.380;2024-01-07T05:53:55;1;1;
83484;PMS5003;73420;32.678;-85.380;2024-01-07T05:56:21;1;1;
83484;PMS5003;73420;32.678;-85.380;2024-01-07T05:58:47;1;1;
83484;PMS5003;73420;32.678;-85.380;2024-01-07T06:01:17;0;0;
83484;PMS5003;73420;32.678;-85.380;2024-01-07T06:03:38;1;1;
83484;PMS5003;73420;32.678;-85.380;2024-01-07T06:06:03;2;2;
83484;PMS5003;73420;32.678;-85.380;2024-01-07T06:08:29;2;2;
83484;PMS5003;73420;32.678;-85.380;2024-01-07T06:10:54;0;0;
83484;PMS5003;73420;32.678;-85.380;2024-01-07T06:13:22;3;2;
83484;PMS5003;73420;32.678;-85.380;2024-01-07T06:15:45;1;1;
83484;PMS5003;73420;32.678;-85.380;2024-01-07T06:18:11;2;2;
83484;PMS5003;73420;32.678;-85.380;2024-01-07T06:20:36;2;2;
83484;PMS5003;73420;32.678;-85.380;2024-01-07T06:23:02;3;3;
83484;PMS5003;73420;32.678;-85.380;2024-01-07T06:25:29;2;2;
83484;PMS5003;73420;32.678;-85.380;2024-01-07T06:27:53;1;1;
83484;PMS5003;73420;32.678;-85.380;2024-01-07T06:30:19;1;1;
83484;PMS5003;73420;32.678;-85.380;2024-01-07T06:32:45;2;2;
83484;PMS5003;73420;32.678;-85.380;2024-01-07T06:35:10;0;0;
83484;PMS5003;73420;32.678;-85.380;2024-01-07T06:37:35;1;1;
83484;PMS5003;73420;32.678;-85.380;2024-01-07T06:40:02;2;2;
83484;PMS5003;73420;32.678;-85.380;2024-01-07T06:42:26;1;1;
83484;PMS5003;73420;32.678;-85.380;2024-01-07T06:44:52;2;2;
83484;PMS5003;73420;32.678;-85.380;2024-01-07T06:47:17;1;1;
83484;PMS5003;73420;32.678;-85.380;2024-01-07T06:49:47;2;2;
83484;PMS5003;73420;32.678;-85.380;2024-01-07T06:52:09;1;1;
83484;PMS5003;73420;32.678;-85.380;2024-01-07T06:54:34;3;2;
83484;PMS5003;73420;32.678;-85.380;2024-01-07T06:57:00;1;1;
83484;PMS5003;73420;32.678;-85.380;2024-01-07T06:59:25;2;2;
83484;PMS5003;73420;32.678;-85.380;2024-01-07T07:01:51;2;2;
83484;PMS5003;73420;32.678;-85.380;2024-01-07T07:04:16;2;2;
83484;PMS5003;73420;32.678;-85.380;2024-01-07T07:06:42;3;3;
83484;PMS5003;73420;32.678;-85.380;2024-01-07T07:09:07;4;4;
83484;PMS5003;73420;32.678;-85.380;2024-01-07T07:11:33;3;3;
83484;PMS5003;73420;32.678;-85.380;2024-01-07T07:14:04;3;3;
83484;PMS5003;73420;32.678;-85.380;2024-01-07T07:16:24;3;3;
83484;PMS5003;73420;32.678;-85.380;2024-01-07T07:18:50;4;4;
83484;PMS5003;73420;32.678;-85.380;2024-01-07T07:21:15;4;3;
83484;PMS5003;73420;32.678;-85.380;2024-01-07T07:23:41;4;4;
83484;PMS5003;73420;32.678;-85.380;2024-01-07T07:26:07;3;3;
83484;PMS5003;73420;32.678;-85.380;2024-01-07T07:28:32;2;2;
83484;PMS5003;73420;32.678;-85.380;2024-01-07T07:30:57;3;3;
83484;PMS5003;73420;32.678;-85.380;2024-01-07T07:33:23;4;3;
83484;PMS5003;73420;32.678;-85.380;2024-01-07T07:35:48;4;4;
83484;PMS5003;73420;32.678;-85.380;2024-01-07T07:38:14;3;3;
83484;PMS5003;73420;32.678;-85.380;2024-01-07T07:40:40;3;3;
83484;PMS5003;73420;32.678;-85.380;2024-01-07T07:43:05;3;3;
83484;PMS5003;73420;32.678;-85.380;2024-01-07T07:45:31;2;2;
83484;PMS5003;73420;32.678;-85.380;2024-01-07T07:47:56;3;3;
83484;PMS5003;73420;32.678;-85.380;2024-01-07T07:50:22;2;2;
83484;PMS5003;73420;32.678;-85.380;2024-01-07T07:52:47;3;2;
83484;PMS5003;73420;32.678;-85.380;2024-01-07T07:55:13;3;3;
83484;PMS5003;73420;32.678;-85.380;2024-01-07T07:57:38;2;2;
83484;PMS5003;73420;32.678;-85.380;2024-01-07T08:00:05;2;2;
83484;PMS5003;73420;32.678;-85.380;2024-01-07T08:02:35;2;2;
83484;PMS5003;73420;32.678;-85.380;2024-01-07T08:04:55;3;3;
83484;PMS5003;73420;32.678;-85.380;2024-01-07T08:07:21;2;2;
83484;PMS5003;73420;32.678;-85.380;2024-01-07T08:09:46;3;3;
83484;PMS5003;73420;32.678;-85.380;2024-01-07T08:12:12;3;3;
83484;PMS5003;73420;32.678;-85.380;2024-01-07T08:14:42;4;4;
83484;PMS5003;73420;32.678;-85.380;2024-01-07T08:17:03;3;3;
83484;PMS5003;73420;32.678;-85.380;2024-01-07T08:19:29;2;2;
83484;PMS5003;73420;32.678;-85.380;2024-01-07T08:21:54;2;2;
83484;PMS5003;73420;32.678;-85.380;2024-01-07T08:24:20;2;2;
83484;PMS5003;73420;32.678;-85.380;2024-01-07T08:26:50;3;3;
83484;PMS5003;73420;32.678;-85.380;2024-01-07T08:29:11;3;3;
83484;PMS5003;73420;32.678;-85.380;2024-01-07T08:31:36;4;4;
83484;PMS5003;73420;32.678;-85.380;2024-01-07T08:34:02;3;3;
83484;PMS5003;73420;32.678;-85.380;2024-01-07T08:36:28;5;4;
83484;PMS5003;73420;32.678;-85.380;2024-01-07T08:38:53;5;5;
83484;PMS5003;73420;32.678;-85.380;2024-01-07T08:41:19;4;4;
83484;PMS5003;73420;32.678;-85.380;2024-01-07T08:43:44;5;5;
83484;PMS5003;73420;32.678;-85.380;2024-01-07T08:46:10;5;5;
83484;PMS5003;73420;32.678;-85.380;2024-01-07T08:48:35;4;4;
83484;PMS5003;73420;32.678;-85.380;2024-01-07T08:51:01;6;6;
83484;PMS5003;73420;32.678;-85.380;2024-01-07T08:53:27;6;6;
83484;PMS5003;73420;32.678;-85.380;2024-01-07T08:55:52;5;5;
83484;PMS5003;73420;32.678;-85.380;2024-01-07T08:58:18;6;5;
83484;PMS5003;73420;32.678;-85.380;2024-01-07T09:00:43;6;6;
83484;PMS5003;73420;32.678;-85.380;2024-01-07T09:03:11;6;6;
83484;PMS5003;73420;32.678;-85.380;2024-01-07T09:05:34;5;5;
83484;PMS5003;73420;32.678;-85.380;2024-01-07T09:08:00;5;5;
83484;PMS5003;73420;32.678;-85.380;2024-01-07T09:10:26;6;6;
83484;PMS5003;73420;32.678;-85.380;2024-01-07T09:12:51;5;5;
83484;PMS5003;73420;32.678;-85.380;2024-01-07T09:15:19;5;5;
83484;PMS5003;73420;32.678;-85.380;2024-01-07T09:17:46;4;4;
83484;PMS5003;73420;32.678;-85.380;2024-01-07T09:20:09;3;3;
83484;PMS5003;73420;32.678;-85.380;2024-01-07T09:22:33;4;4;
83484;PMS5003;73420;32.678;-85.380;2024-01-07T09:24:59;3;3;
83484;PMS5003;73420;32.678;-85.380;2024-01-07T09:27:28;4;4;
83484;PMS5003;73420;32.678;-85.380;2024-01-07T09:29:50;4;4;
83484;PMS5003;73420;32.678;-85.380;2024-01-07T09:32:16;3;3;
83484;PMS5003;73420;32.678;-85.380;2024-01-07T09:34:41;4;4;
83484;PMS5003;73420;32.678;-85.380;2024-01-07T09:37:07;3;3;
83484;PMS5003;73420;32.678;-85.380;2024-01-07T09:39:38;3;3;
83484;PMS5003;73420;32.678;-85.380;2024-01-07T09:41:58;3;3;
83484;PMS5003;73420;32.678;-85.380;2024-01-07T09:44:24;2;2;
83484;PMS5003;73420;32.678;-85.380;2024-01-07T09:46:49;5;5;
83484;PMS5003;73420;32.678;-85.380;2024-01-07T09:49:15;4;4;
83484;PMS5003;73420;32.678;-85.380;2024-01-07T09:51:41;4;4;
83484;PMS5003;73420;32.678;-85.380;2024-01-07T09:54:08;4;3;
83484;PMS5003;73420;32.678;-85.380;2024-01-07T09:56:34;4;4;
83484;PMS5003;73420;32.678;-85.380;2024-01-07T09:58:57;3;3;
83484;PMS5003;73420;32.678;-85.380;2024-01-07T10:01:31;3;3;
83484;PMS5003;73420;32.678;-85.380;2024-01-07T10:03:49;3;3;
83484;PMS5003;73420;32.678;-85.380;2024-01-07T10:06:15;3;3;
83484;PMS5003;73420;32.678;-85.380;2024-01-07T10:08:40;4;4;
83484;PMS5003;73420;32.678;-85.380;2024-01-07T10:11:05;4;4;
83484;PMS5003;73420;32.678;-85.380;2024-01-07T10:13:31;3;3;
83484;PMS5003;73420;32.678;-85.380;2024-01-07T10:15:59;4;4;
83484;PMS5003;73420;32.678;-85.380;2024-01-07T10:18:22;4;4;
83484;PMS5003;73420;32.678;-85.380;2024-01-07T10:20:49;5;5;
83484;PMS5003;73420;32.678;-85.380;2024-01-07T10:23:14;5;5;
83484;PMS5003;73420;32.678;-85.380;2024-01-07T10:25:39;3;3;
83484;PMS5003;73420;32.678;-85.380;2024-01-07T10:28:05;3;3;
83484;PMS5003;73420;32.678;-85.380;2024-01-07T10:30:30;3;3;
83484;PMS5003;73420;32.678;-85.380;2024-01-07T10:32:56;3;3;
83484;PMS5003;73420;32.678;-85.380;2024-01-07T10:35:21;4;3;
83484;PMS5003;73420;32.678;-85.380;2024-01-07T10:37:47;5;5;
83484;PMS5003;73420;32.678;-85.380;2024-01-07T10:40:13;3;3;
83484;PMS5003;73420;32.678;-85.380;2024-01-07T10:42:38;3;3;
83484;PMS5003;73420;32.678;-85.380;2024-01-07T10:45:04;3;3;
83484;PMS5003;73420;32.678;-85.380;2024-01-07T10:47:30;3;3;
83484;PMS5003;73420;32.678;-85.380;2024-01-07T10:49:55;4;4;
83484;PMS5003;73420;32.678;-85.380;2024-01-07T10:52:21;4;4;
83484;PMS5003;73420;32.678;-85.380;2024-01-07T10:54:46;4;4;
83484;PMS5003;73420;32.678;-85.380;2024-01-07T10:57:13;2;2;
83484;PMS5003;73420;32.678;-85.380;2024-01-07T10:59:37;3;3;
83484;PMS5003;73420;32.678;-85.380;2024-01-07T11:02:03;3;3;
83484;PMS5003;73420;32.678;-85.380;2024-01-07T11:04:30;3;3;
83484;PMS5003;73420;32.678;-85.380;2024-01-07T11:06:57;3;3;
83484;PMS5003;73420;32.678;-85.380;2024-01-07T11:09:21;2;2;
83484;PMS5003;73420;32.678;-85.380;2024-01-07T11:11:45;5;5;
83484;PMS5003;73420;32.678;-85.380;2024-01-07T11:16:41;5;5;
83484;PMS5003;73420;32.678;-85.380;2024-01-07T11:19:02;2;2;
83484;PMS5003;73420;32.678;-85.380;2024-01-07T11:21:27;2;2;
83484;PMS5003;73420;32.678;-85.380;2024-01-07T11:23:53;4;4;
83484;PMS5003;73420;32.678;-85.380;2024-01-07T11:26:18;5;5;
83484;PMS5003;73420;32.678;-85.380;2024-01-07T11:28:47;3;3;
83484;PMS5003;73420;32.678;-85.380;2024-01-07T11:31:10;3;3;
83484;PMS5003;73420;32.678;-85.380;2024-01-07T11:33:36;5;5;
83484;PMS5003;73420;32.678;-85.380;2024-01-07T11:36:02;4;4;
83484;PMS5003;73420;32.678;-85.380;2024-01-07T11:38:26;5;5;
83484;PMS5003;73420;32.678;-85.380;2024-01-07T11:40:54;5;5;
83484;PMS5003;73420;32.678;-85.380;2024-01-07T11:43:18;4;4;
83484;PMS5003;73420;32.678;-85.380;2024-01-07T11:45:43;5;5;
83484;PMS5003;73420;32.678;-85.380;2024-01-07T11:48:09;4;4;
83484;PMS5003;73420;32.678;-85.380;2024-01-07T11:50:35;4;4;
83484;PMS5003;73420;32.678;-85.380;2024-01-07T11:53:00;3;3;
83484;PMS5003;73420;32.678;-85.380;2024-01-07T11:55:25;5;5;
83484;PMS5003;73420;32.678;-85.380;2024-01-07T11:57:51;4;4;
83484;PMS5003;73420;32.678;-85.380;2024-01-07T12:00:17;5;4;
83484;PMS5003;73420;32.678;-85.380;2024-01-07T12:02:42;4;4;
83484;PMS5003;73420;32.678;-85.380;2024-01-07T12:05:08;4;4;
83484;PMS5003;73420;32.678;-85.380;2024-01-07T12:07:33;4;4;
83484;PMS5003;73420;32.678;-85.380;2024-01-07T12:09:59;4;4;
83484;PMS5003;73420;32.678;-85.380;2024-01-07T12:12:25;4;4;
83484;PMS5003;73420;32.678;-85.380;2024-01-07T12:14:50;6;5;
83484;PMS5003;73420;32.678;-85.380;2024-01-07T12:17:19;5;5;
83484;PMS5003;73420;32.678;-85.380;2024-01-07T12:19:41;4;4;
83484;PMS5003;73420;32.678;-85.380;2024-01-07T12:22:07;5;4;
83484;PMS5003;73420;32.678;-85.380;2024-01-07T12:24:33;4;4;
83484;PMS5003;73420;32.678;-85.380;2024-01-07T12:29:27;4;4;
83484;PMS5003;73420;32.678;-85.380;2024-01-07T12:31:50;4;4;
83484;PMS5003;73420;32.678;-85.380;2024-01-07T12:34:15;4;4;
83484;PMS5003;73420;32.678;-85.380;2024-01-07T12:36:40;6;6;
83484;PMS5003;73420;32.678;-85.380;2024-01-07T12:39:06;5;4;
83484;PMS5003;73420;32.678;-85.380;2024-01-07T12:41:34;5;5;
83484;PMS5003;73420;32.678;-85.380;2024-01-07T12:43:57;4;4;
83484;PMS5003;73420;32.678;-85.380;2024-01-07T12:46:23;6;6;
83484;PMS5003;73420;32.678;-85.380;2024-01-07T12:48:48;4;4;
83484;PMS5003;73420;32.678;-85.380;2024-01-07T12:51:14;5;5;
83484;PMS5003;73420;32.678;-85.380;2024-01-07T12:53:40;5;5;
83484;PMS5003;73420;32.678;-85.380;2024-01-07T12:56:06;4;4;
83484;PMS5003;73420;32.678;-85.380;2024-01-07T12:58:31;4;4;
83484;PMS5003;73420;32.678;-85.380;2024-01-07T13:00:57;4;4;
83484;PMS5003;73420;32.678;-85.380;2024-01-07T13:03:22;5;5;
83484;PMS5003;73420;32.678;-85.380;2024-01-07T13:05:51;3;3;
83484;PMS5003;73420;32.678;-85.380;2024-01-07T13:08:13;3;3;
83484;PMS5003;73420;32.678;-85.380;2024-01-07T13:10:39;3;3;
83484;PMS5003;73420;32.678;-85.380;2024-01-07T13:13:04;3;3;
83484;PMS5003;73420;32.678;-85.380;2024-01-07T13:15:30;4;4;
83484;PMS5003;73420;32.678;-85.380;2024-01-07T13:17:56;5;5;
83484;PMS5003;73420;32.678;-85.380;2024-01-07T13:20:21;4;4;
83484;PMS5003;73420;32.678;-85.380;2024-01-07T13:22:47;2;2;
83484;PMS5003;73420;32.678;-85.380;2024-01-07T13:25:13;4;4;
83484;PMS5003;73420;32.678;-85.380;2024-01-07T13:27:38;5;5;
83484;PMS5003;73420;32.678;-85.380;2024-01-07T13:30:04;4;4;
83484;PMS5003;73420;32.678;-85.380;2024-01-07T13:32:29;3;3;
83484;PMS5003;73420;32.678;-85.380;2024-01-07T13:34:55;4;4;
83484;PMS5003;73420;32.678;-85.380;2024-01-07T13:37:20;4;4;
83484;PMS5003;73420;32.678;-85.380;2024-01-07T13:39:46;4;4;
83484;PMS5003;73420;32.678;-85.380;2024-01-07T13:42:16;5;5;
83484;PMS5003;73420;32.678;-85.380;2024-01-07T13:44:37;4;4;
83484;PMS5003;73420;32.678;-85.380;2024-01-07T13:47:03;4;4;
83484;PMS5003;73420;32.678;-85.380;2024-01-07T13:49:28;4;4;
83484;PMS5003;73420;32.678;-85.380;2024-01-07T13:51:54;4;4;
83484;PMS5003;73420;32.678;-85.380;2024-01-07T13:54:20;5;4;
83484;PMS5003;73420;32.678;-85.380;2024-01-07T13:56:45;4;4;
83484;PMS5003;73420;32.678;-85.380;2024-01-07T13:59:10;6;6;
83484;PMS5003;73420;32.678;-85.380;2024-01-07T14:01:36;3;3;
83484;PMS5003;73420;32.678;-85.380;2024-01-07T14:04:01;5;4;
83484;PMS5003;73420;32.678;-85.380;2024-01-07T14:06:32;4;4;
83484;PMS5003;73420;32.678;-85.380;2024-01-07T14:08:53;5;5;
83484;PMS5003;73420;32.678;-85.380;2024-01-07T14:11:18;5;5;
83484;PMS5003;73420;32.678;-85.380;2024-01-07T14:13:44;6;5;
83484;PMS5003;73420;32.678;-85.380;2024-01-07T14:16:09;7;7;
83484;PMS5003;73420;32.678;-85.380;2024-01-07T14:18:38;6;6;
83484;PMS5003;73420;32.678;-85.380;2024-01-07T14:21:00;8;7;
83484;PMS5003;73420;32.678;-85.380;2024-01-07T14:23:26;6;6;
83484;PMS5003;73420;32.678;-85.380;2024-01-07T14:25:51;3;3;
83484;PMS5003;73420;32.678;-85.380;2024-01-07T14:28:17;4;4;
83484;PMS5003;73420;32.678;-85.380;2024-01-07T14:30:43;6;6;
83484;PMS5003;73420;32.678;-85.380;2024-01-07T14:33:08;7;7;
83484;PMS5003;73420;32.678;-85.380;2024-01-07T14:35:33;5;5;
83484;PMS5003;73420;32.678;-85.380;2024-01-07T14:37:59;5;5;
83484;PMS5003;73420;32.678;-85.380;2024-01-07T14:40:24;6;6;
83484;PMS5003;73420;32.678;-85.380;2024-01-07T14:42:50;6;6;
83484;PMS5003;73420;32.678;-85.380;2024-01-07T14:45:15;6;6;
83484;PMS5003;73420;32.678;-85.380;2024-01-07T14:47:41;7;7;
83484;PMS5003;73420;32.678;-85.380;2024-01-07T14:50:07;7;7;
83484;PMS5003;73420;32.678;-85.380;2024-01-07T14:52:32;8;8;
83484;PMS5003;73420;32.678;-85.380;2024-01-07T14:55:00;8;8;
83484;PMS5003;73420;32.678;-85.380;2024-01-07T14:57:23;8;7;
83484;PMS5003;73420;32.678;-85.380;2024-01-07T14:59:49;9;9;
83484;PMS5003;73420;32.678;-85.380;2024-01-07T15:02:14;8;8;
83484;PMS5003;73420;32.678;-85.380;2024-01-07T15:04:40;9;9;
83484;PMS5003;73420;32.678;-85.380;2024-01-07T15:07:10;7;7;
83484;PMS5003;73420;32.678;-85.380;2024-01-07T15:09:30;8;8;
83484;PMS5003;73420;32.678;-85.380;2024-01-07T15:11:56;6;6;
83484;PMS5003;73420;32.678;-85.380;2024-01-07T15:14:22;6;6;
83484;PMS5003;73420;32.678;-85.380;2024-01-07T15:16:47;8;6;
83484;PMS5003;73420;32.678;-85.380;2024-01-07T15:19:13;8;7;
83484;PMS5003;73420;32.678;-85.380;2024-01-07T15:21:38;6;6;
83484;PMS5003;73420;32.678;-85.380;2024-01-07T15:24:04;8;8;
83484;PMS5003;73420;32.678;-85.380;2024-01-07T15:26:29;6;6;
83484;PMS5003;73420;32.678;-85.380;2024-01-07T15:28:55;6;6;
83484;PMS5003;73420;32.678;-85.380;2024-01-07T15:31:20;7;7;
83484;PMS5003;73420;32.678;-85.380;2024-01-07T15:33:46;7;7;
83484;PMS5003;73420;32.678;-85.380;2024-01-07T15:36:11;6;6;
83484;PMS5003;73420;32.678;-85.380;2024-01-07T15:38:37;7;7;
83484;PMS5003;73420;32.678;-85.380;2024-01-07T15:41:02;6;6;
83484;PMS5003;73420;32.678;-85.380;2024-01-07T15:43:28;4;4;
83484;PMS5003;73420;32.678;-85.380;2024-01-07T15:45:53;5;5;
83484;PMS5003;73420;32.678;-85.380;2024-01-07T15:48:18;5;5;
83484;PMS5003;73420;32.678;-85.380;2024-01-07T15:50:44;4;4;
83484;PMS5003;73420;32.678;-85.380;2024-01-07T15:53:09;5;5;
83484;PMS5003;73420;32.678;-85.380;2024-01-07T15:55:37;6;6;
83484;PMS5003;73420;32.678;-85.380;2024-01-07T15:58:00;5;5;
83484;PMS5003;73420;32.678;-85.380;2024-01-07T16:00:26;4;4;
83484;PMS5003;73420;32.678;-85.380;2024-01-07T16:02:51;6;5;
83484;PMS5003;73420;32.678;-85.380;2024-01-07T16:05:17;4;4;
83484;PMS5003;73420;32.678;-85.380;2024-01-07T16:07:44;4;4;
83484;PMS5003;73420;32.678;-85.380;2024-01-07T16:10:08;3;3;
83484;PMS5003;73420;32.678;-85.380;2024-01-07T16:12:33;4;4;